createdAt,value
2022-12-03T00:00:30.044Z,34.13
2022-12-03T00:01:01.491Z,30.63
2022-12-03T00:01:32.939Z,32.92
2022-12-03T00:02:04.483Z,33.22
2022-12-03T00:02:36.176Z,35.63
2022-12-03T00:03:07.849Z,32.85
2022-12-03T00:03:39.500Z,36.45
2022-12-03T00:04:11.735Z,34.78
2022-12-03T00:04:43.197Z,30.13
2022-12-03T00:05:14.688Z,33.90
2022-12-03T00:05:49.030Z,41.33
2022-12-03T00:06:20.954Z,30.45
2022-12-03T00:06:52.537Z,33.13
2022-12-03T00:07:24.077Z,30.58
2022-12-03T00:07:55.654Z,31.30
2022-12-03T00:08:27.157Z,37.00
2022-12-03T00:08:58.628Z,37.53
2022-12-03T00:09:30.213Z,35.33
2022-12-03T00:10:01.756Z,36.10
2022-12-03T00:10:33.206Z,32.95
2022-12-03T00:11:04.813Z,33.97
2022-12-03T00:11:36.255Z,32.67
2022-12-03T00:12:07.733Z,32.60
2022-12-03T00:12:39.205Z,32.30
2022-12-03T00:13:10.692Z,33.20
2022-12-03T00:13:42.321Z,33.15
2022-12-03T00:14:13.886Z,30.42
2022-12-03T00:14:45.343Z,32.25
2022-12-03T00:15:16.974Z,32.30
2022-12-03T00:15:48.570Z,34.67
2022-12-03T00:16:20.104Z,34.33
2022-12-03T00:16:51.684Z,31.98
2022-12-03T00:17:23.138Z,36.25
2022-12-03T00:17:54.700Z,30.42
2022-12-03T00:18:26.158Z,36.00
2022-12-03T00:18:57.775Z,30.45
2022-12-03T00:19:29.412Z,34.78
2022-12-03T00:20:00.845Z,30.88
2022-12-03T00:20:32.348Z,34.25
2022-12-03T00:21:04.937Z,32.40
2022-12-03T00:21:36.393Z,33.28
2022-12-03T00:22:07.833Z,33.67
2022-12-03T00:22:39.328Z,35.33
2022-12-03T00:23:10.992Z,30.90
2022-12-03T00:23:42.667Z,35.92
2022-12-03T00:24:14.202Z,34.00
2022-12-03T00:24:45.723Z,33.03
2022-12-03T00:25:17.610Z,38.24
2022-12-03T00:25:49.054Z,37.88
2022-12-03T00:26:20.941Z,31.98
2022-12-03T00:26:53.235Z,33.30
2022-12-03T00:27:24.740Z,36.58
2022-12-03T00:27:56.223Z,35.10
2022-12-03T00:28:27.704Z,36.15
2022-12-03T00:28:59.188Z,38.17
2022-12-03T00:29:30.657Z,33.97
2022-12-03T00:30:02.109Z,35.10
2022-12-03T00:30:33.617Z,34.65
2022-12-03T00:31:05.525Z,31.35
2022-12-03T00:31:37.107Z,33.05
2022-12-03T00:32:08.666Z,32.70
2022-12-03T00:32:40.104Z,35.00
2022-12-03T00:33:11.598Z,33.38
2022-12-03T00:33:43.048Z,33.72
2022-12-03T00:34:14.529Z,33.58
2022-12-03T00:34:46.105Z,40.67
2022-12-03T00:35:17.744Z,35.35
2022-12-03T00:35:49.265Z,35.42
2022-12-03T00:36:20.760Z,37.33
2022-12-03T00:36:52.211Z,36.55
2022-12-03T00:37:23.675Z,33.20
2022-12-03T00:37:55.966Z,35.15
2022-12-03T00:38:27.525Z,36.45
2022-12-03T00:38:59.094Z,36.42
2022-12-03T00:39:30.605Z,35.65
2022-12-03T00:40:04.262Z,35.83
2022-12-03T00:40:35.735Z,35.50
2022-12-03T00:41:07.396Z,36.33
2022-12-03T00:41:38.836Z,36.35
2022-12-03T00:42:10.285Z,37.55
2022-12-03T00:42:41.925Z,35.90
2022-12-03T00:43:13.469Z,35.30
2022-12-03T00:43:44.955Z,35.22
2022-12-03T00:44:16.758Z,36.88
2022-12-03T00:44:48.402Z,35.15
2022-12-03T00:45:19.873Z,37.13
2022-12-03T00:45:51.409Z,36.65
2022-12-03T00:46:24.385Z,36.42
2022-12-03T00:46:55.986Z,39.60
2022-12-03T00:47:27.504Z,33.85
2022-12-03T00:47:59.061Z,38.42
2022-12-03T00:48:30.512Z,36.20
2022-12-03T00:49:02.889Z,35.30
2022-12-03T00:49:34.388Z,36.55
2022-12-03T00:50:06.652Z,35.83
2022-12-03T00:50:38.264Z,32.97
2022-12-03T00:51:09.733Z,32.67
2022-12-03T00:51:41.216Z,35.67
2022-12-03T00:52:12.690Z,34.25
2022-12-03T00:52:44.259Z,32.85
2022-12-03T00:53:15.745Z,36.63
2022-12-03T00:53:47.221Z,34.22
2022-12-03T00:54:18.656Z,38.42
2022-12-03T00:54:50.385Z,39.28
2022-12-03T00:55:22.198Z,36.00
2022-12-03T00:55:53.631Z,33.35
2022-12-03T00:56:25.136Z,36.95
2022-12-03T00:56:56.658Z,40.05
2022-12-03T00:57:28.161Z,36.13
2022-12-03T00:57:59.665Z,36.92
2022-12-03T00:58:31.105Z,35.90
2022-12-03T00:59:02.550Z,33.70
2022-12-03T00:59:34.045Z,34.47
2022-12-03T01:00:06.404Z,37.25
2022-12-03T01:00:38.053Z,35.00
2022-12-03T01:01:09.531Z,35.60
2022-12-03T01:01:41.098Z,37.10
2022-12-03T01:02:12.655Z,36.35
2022-12-03T01:02:44.178Z,36.10
2022-12-03T01:03:15.655Z,37.33
2022-12-03T01:03:47.114Z,35.10
2022-12-03T01:04:18.718Z,36.97
2022-12-03T01:04:50.503Z,35.15
2022-12-03T01:05:22.250Z,42.97
2022-12-03T01:05:53.777Z,35.72
2022-12-03T01:06:25.230Z,34.17
2022-12-03T01:06:56.716Z,36.85
2022-12-03T01:07:28.208Z,38.45
2022-12-03T01:07:59.826Z,41.88
2022-12-03T01:08:31.346Z,33.95
2022-12-03T01:09:03.066Z,35.28
2022-12-03T01:09:34.765Z,39.00
2022-12-03T01:10:07.017Z,38.75
2022-12-03T01:10:38.534Z,36.80
2022-12-03T01:11:30.082Z,35.05
2022-12-03T01:12:01.577Z,36.22
2022-12-03T01:12:33.022Z,33.97
2022-12-03T01:13:04.475Z,35.72
2022-12-03T01:13:35.942Z,38.20
2022-12-03T01:14:10.374Z,37.33
2022-12-03T01:14:41.812Z,36.38
2022-12-03T01:15:13.315Z,37.13
2022-12-03T01:15:44.807Z,38.95
2022-12-03T01:16:16.352Z,39.90
2022-12-03T01:16:48.395Z,36.45
2022-12-03T01:17:20.116Z,34.25
2022-12-03T01:17:51.633Z,39.53
2022-12-03T01:18:23.146Z,35.88
2022-12-03T01:18:54.746Z,40.22
2022-12-03T01:19:26.220Z,38.83
2022-12-03T01:19:59.090Z,37.08
2022-12-03T01:20:30.577Z,36.65
2022-12-03T01:21:02.028Z,35.35
2022-12-03T01:21:33.876Z,39.00
2022-12-03T01:22:05.324Z,35.05
2022-12-03T01:22:36.874Z,38.28
2022-12-03T01:23:08.412Z,37.53
2022-12-03T01:23:39.867Z,34.28
2022-12-03T01:24:11.467Z,35.28
2022-12-03T01:24:43.812Z,40.40
2022-12-03T01:25:15.453Z,37.88
2022-12-03T01:25:46.927Z,37.25
2022-12-03T01:26:18.389Z,35.22
2022-12-03T01:26:49.917Z,35.53
2022-12-03T01:27:21.368Z,40.80
2022-12-03T01:27:53.099Z,34.63
2022-12-03T01:28:24.613Z,35.20
2022-12-03T01:28:56.097Z,37.83
2022-12-03T01:29:27.676Z,36.03
2022-12-03T01:29:59.092Z,36.67
2022-12-03T01:30:50.602Z,41.55
2022-12-03T01:31:42.406Z,36.35
2022-12-03T01:32:16.727Z,34.78
2022-12-03T01:32:48.185Z,36.80
2022-12-03T01:33:19.670Z,38.63
2022-12-03T01:33:51.112Z,37.13
2022-12-03T01:34:22.564Z,35.80
2022-12-03T01:34:55.739Z,39.80
2022-12-03T01:35:27.531Z,37.75
2022-12-03T01:35:58.978Z,35.85
2022-12-03T01:36:30.517Z,39.47
2022-12-03T01:37:02.121Z,38.13
2022-12-03T01:37:33.774Z,38.83
2022-12-03T01:38:05.234Z,37.55
2022-12-03T01:38:36.702Z,39.92
2022-12-03T01:39:08.317Z,37.47
2022-12-03T01:39:40.283Z,38.55
2022-12-03T01:40:13.793Z,36.72
2022-12-03T01:40:45.252Z,38.20
2022-12-03T01:41:17.840Z,32.13
2022-12-03T01:41:50.519Z,40.20
2022-12-03T01:42:28.132Z,38.97
2022-12-03T01:42:59.605Z,39.80
2022-12-03T01:43:31.289Z,40.28
2022-12-03T01:44:04.592Z,39.33
2022-12-03T01:44:37.274Z,44.28
2022-12-03T01:45:21.377Z,36.88
2022-12-03T01:45:52.914Z,38.63
2022-12-03T01:46:37.768Z,33.15
2022-12-03T01:47:14.124Z,40.63
2022-12-03T01:47:45.605Z,36.60
2022-12-03T01:48:17.307Z,37.45
2022-12-03T01:48:50.634Z,40.47
2022-12-03T01:49:26.441Z,33.40
2022-12-03T01:50:21.022Z,32.25
2022-12-03T01:50:52.486Z,38.38
2022-12-03T01:51:24.013Z,38.80
2022-12-03T01:51:56.559Z,38.60
2022-12-03T01:52:31.589Z,41.78
2022-12-03T01:53:04.503Z,39.65
2022-12-03T01:53:36.294Z,40.15
2022-12-03T01:54:16.260Z,40.88
2022-12-03T01:54:51.455Z,36.45
2022-12-03T01:55:24.436Z,38.97
2022-12-03T01:55:55.982Z,37.05
2022-12-03T01:56:27.860Z,42.15
2022-12-03T01:56:59.392Z,33.90
2022-12-03T01:57:40.805Z,41.08
2022-12-03T01:58:14.320Z,45.70
2022-12-03T01:58:46.448Z,41.78
2022-12-03T01:59:19.698Z,40.48
2022-12-03T01:59:52.884Z,42.88
2022-12-03T02:00:27.053Z,37.55
2022-12-03T02:01:02.050Z,40.05
2022-12-03T02:01:33.598Z,39.90
2022-12-03T02:02:12.628Z,39.10
2022-12-03T02:02:45.564Z,37.25
2022-12-03T02:03:19.685Z,35.53
2022-12-03T02:03:51.467Z,36.42
2022-12-03T02:04:23.712Z,41.78
2022-12-03T02:04:56.342Z,33.88
2022-12-03T02:05:31.857Z,33.88
2022-12-03T02:06:03.518Z,38.65
2022-12-03T02:06:35.040Z,37.92
2022-12-03T02:07:33.556Z,38.92
2022-12-03T02:08:29.510Z,36.85
2022-12-03T02:09:01.063Z,37.53
2022-12-03T02:09:32.507Z,40.95
2022-12-03T02:10:04.528Z,39.20
2022-12-03T02:10:37.671Z,37.10
2022-12-03T02:11:30.136Z,38.08
2022-12-03T02:12:01.569Z,40.38
2022-12-03T02:12:39.994Z,39.22
2022-12-03T02:13:11.669Z,41.13
2022-12-03T02:13:43.531Z,39.83
2022-12-03T02:14:20.325Z,38.80
2022-12-03T02:14:52.308Z,35.88
2022-12-03T02:15:24.168Z,37.97
2022-12-03T02:15:55.694Z,35.00
2022-12-03T02:16:27.370Z,34.38
2022-12-03T02:17:00.259Z,37.20
2022-12-03T02:17:32.021Z,36.58
2022-12-03T02:18:03.656Z,35.53
2022-12-03T02:18:35.158Z,41.85
2022-12-03T02:19:24.904Z,38.05
2022-12-03T02:19:56.488Z,38.60
2022-12-03T02:20:28.006Z,34.10
2022-12-03T02:21:09.806Z,35.10
2022-12-03T02:22:07.605Z,39.42
2022-12-03T02:23:07.227Z,35.65
2022-12-03T02:23:57.863Z,37.10
2022-12-03T02:24:36.737Z,47.13
2022-12-03T02:25:23.663Z,37.30
2022-12-03T02:25:55.183Z,42.95
2022-12-03T02:26:26.728Z,36.92
2022-12-03T02:26:58.174Z,39.45
2022-12-03T02:27:29.779Z,40.55
2022-12-03T02:28:01.945Z,35.08
2022-12-03T02:28:33.439Z,34.25
2022-12-03T02:29:04.965Z,37.55
2022-12-03T02:29:36.843Z,42.25
2022-12-03T02:30:09.668Z,38.40
2022-12-03T02:30:41.143Z,41.47
2022-12-03T02:31:12.768Z,39.50
2022-12-03T02:31:44.661Z,34.53
2022-12-03T02:32:16.142Z,38.33
2022-12-03T02:32:48.638Z,38.50
2022-12-03T02:33:20.115Z,38.38
2022-12-03T02:33:51.608Z,39.05
2022-12-03T02:34:43.621Z,35.74
2022-12-03T02:35:17.200Z,38.00
2022-12-03T02:35:48.960Z,35.88
2022-12-03T02:36:20.806Z,50.05
2022-12-03T02:36:52.249Z,41.58
2022-12-03T02:37:33.700Z,41.15
2022-12-03T02:38:15.443Z,41.30
2022-12-03T02:38:48.031Z,39.30
2022-12-03T02:39:19.627Z,37.15
2022-12-03T02:39:54.943Z,41.95
2022-12-03T02:40:29.332Z,37.53
2022-12-03T02:41:04.659Z,38.97
2022-12-03T02:41:54.681Z,36.88
2022-12-03T02:42:35.434Z,41.75
2022-12-03T02:43:06.962Z,37.10
2022-12-03T02:43:38.545Z,35.45
2022-12-03T02:44:10.304Z,35.42
2022-12-03T02:44:41.784Z,41.38
2022-12-03T02:45:26.361Z,37.17
2022-12-03T02:46:00.320Z,42.65
2022-12-03T02:46:32.017Z,41.83
2022-12-03T02:47:03.765Z,37.17
2022-12-03T02:47:38.723Z,34.42
2022-12-03T02:48:14.321Z,43.15
2022-12-03T02:48:45.771Z,36.95
2022-12-03T02:49:17.221Z,33.33
2022-12-03T02:49:49.347Z,37.92
2022-12-03T02:50:24.873Z,39.65
2022-12-03T02:50:59.770Z,40.08
2022-12-03T02:51:31.416Z,38.72
2022-12-03T02:52:03.463Z,36.90
2022-12-03T02:52:35.118Z,36.92
2022-12-03T02:53:19.485Z,36.05
2022-12-03T02:53:52.185Z,37.28
2022-12-03T02:54:23.904Z,31.20
2022-12-03T02:54:55.813Z,38.28
2022-12-03T02:55:33.505Z,36.08
2022-12-03T02:56:09.073Z,40.17
2022-12-03T02:56:40.644Z,36.38
2022-12-03T02:57:12.145Z,35.10
2022-12-03T02:57:46.005Z,39.03
2022-12-03T02:58:18.027Z,39.08
2022-12-03T02:58:51.939Z,37.22
2022-12-03T02:59:23.603Z,36.30
2022-12-03T02:59:55.142Z,33.45
2022-12-03T03:00:26.797Z,38.95
2022-12-03T03:00:59.068Z,42.42
2022-12-03T03:01:31.115Z,38.40
2022-12-03T03:02:02.718Z,34.22
2022-12-03T03:02:34.746Z,36.40
2022-12-03T03:03:06.810Z,42.17
2022-12-03T03:03:38.556Z,37.08
2022-12-03T03:04:10.133Z,37.35
2022-12-03T03:04:42.039Z,38.22
2022-12-03T03:05:14.071Z,39.33
2022-12-03T03:05:45.558Z,35.70
2022-12-03T03:06:18.352Z,39.65
2022-12-03T03:06:49.808Z,36.10
2022-12-03T03:07:21.478Z,35.80
2022-12-03T03:07:53.085Z,35.05
2022-12-03T03:08:25.476Z,37.22
2022-12-03T03:08:57.298Z,33.80
2022-12-03T03:09:28.764Z,38.65
2022-12-03T03:10:01.071Z,35.15
2022-12-03T03:10:33.275Z,35.58
2022-12-03T03:11:05.034Z,39.65
2022-12-03T03:11:36.506Z,37.30
2022-12-03T03:12:08.230Z,35.50
2022-12-03T03:12:40.055Z,33.97
2022-12-03T03:13:19.073Z,38.38
2022-12-03T03:13:50.568Z,34.95
2022-12-03T03:14:22.067Z,35.22
2022-12-03T03:14:53.861Z,36.30
2022-12-03T03:15:25.584Z,34.47
2022-12-03T03:15:57.265Z,34.13
2022-12-03T03:16:28.888Z,35.28
2022-12-03T03:17:00.483Z,36.88
2022-12-03T03:17:32.217Z,34.33
2022-12-03T03:18:04.718Z,37.33
2022-12-03T03:18:36.625Z,35.22
2022-12-03T03:19:08.600Z,40.33
2022-12-03T03:19:40.097Z,32.88
2022-12-03T03:20:12.354Z,35.10
2022-12-03T03:20:44.209Z,36.00
2022-12-03T03:21:15.693Z,37.63
2022-12-03T03:21:47.263Z,32.40
2022-12-03T03:22:18.789Z,31.13
2022-12-03T03:22:50.285Z,30.73
2022-12-03T03:23:23.349Z,32.45
2022-12-03T03:23:54.801Z,30.00
2022-12-03T03:24:26.668Z,39.83
2022-12-03T03:24:58.123Z,32.60
2022-12-03T03:25:29.617Z,34.50
2022-12-03T03:26:03.812Z,33.03
2022-12-03T03:26:35.514Z,28.75
2022-12-03T03:27:07.173Z,32.92
2022-12-03T03:27:40.287Z,35.13
2022-12-03T03:28:12.119Z,28.70
2022-12-03T03:28:46.982Z,30.27
2022-12-03T03:29:19.072Z,23.67
2022-12-03T03:29:50.994Z,32.67
2022-12-03T03:30:22.469Z,33.78
2022-12-03T03:30:54.193Z,31.30
2022-12-03T03:31:25.743Z,30.95
2022-12-03T03:31:58.205Z,30.02
2022-12-03T03:32:30.481Z,27.38
2022-12-03T03:33:02.001Z,28.17
2022-12-03T03:33:33.887Z,28.48
2022-12-03T03:34:05.380Z,31.73
2022-12-03T03:34:36.850Z,30.30
2022-12-03T03:35:09.891Z,30.00
2022-12-03T03:35:42.241Z,29.98
2022-12-03T03:36:14.376Z,35.13
2022-12-03T03:36:46.142Z,32.25
2022-12-03T03:37:17.588Z,30.67
2022-12-03T03:37:49.107Z,32.03
2022-12-03T03:38:21.131Z,29.38
2022-12-03T03:38:52.937Z,31.10
2022-12-03T03:39:24.712Z,28.95
2022-12-03T03:39:56.188Z,29.05
2022-12-03T03:40:28.172Z,26.45
2022-12-03T03:41:02.198Z,26.02
2022-12-03T03:41:34.377Z,29.40
2022-12-03T03:42:05.860Z,28.60
2022-12-03T03:42:37.931Z,30.15
2022-12-03T03:43:09.606Z,31.38
2022-12-03T03:43:42.508Z,28.77
2022-12-03T03:44:14.253Z,27.20
2022-12-03T03:44:48.009Z,24.67
2022-12-03T03:45:24.004Z,28.83
2022-12-03T03:45:59.039Z,30.15
2022-12-03T03:46:33.163Z,29.00
2022-12-03T03:47:04.836Z,28.95
2022-12-03T03:47:36.957Z,33.60
2022-12-03T03:48:08.503Z,32.67
2022-12-03T03:48:41.617Z,25.33
2022-12-03T03:49:13.244Z,28.77
2022-12-03T03:49:44.793Z,29.35
2022-12-03T03:50:16.432Z,25.20
2022-12-03T03:50:48.225Z,25.65
2022-12-03T03:51:20.069Z,28.30
2022-12-03T03:51:51.617Z,29.25
2022-12-03T03:52:23.221Z,28.85
2022-12-03T03:52:55.396Z,31.45
2022-12-03T03:53:26.978Z,23.88
2022-12-03T03:53:58.617Z,26.75
2022-12-03T03:54:30.610Z,27.73
2022-12-03T03:55:02.185Z,27.50
2022-12-03T03:55:34.076Z,29.17
2022-12-03T03:56:06.168Z,28.88
2022-12-03T03:56:37.671Z,28.00
2022-12-03T03:57:09.163Z,32.95
2022-12-03T03:57:40.734Z,29.05
2022-12-03T03:58:12.357Z,26.17
2022-12-03T03:58:43.882Z,26.50
2022-12-03T03:59:15.777Z,29.55
2022-12-03T03:59:47.240Z,29.25
2022-12-03T04:00:19.096Z,31.33
2022-12-03T04:00:51.746Z,27.98
2022-12-03T04:01:23.881Z,32.78
2022-12-03T04:01:55.454Z,26.88
2022-12-03T04:02:27.429Z,30.75
2022-12-03T04:02:58.895Z,30.48
2022-12-03T04:03:30.371Z,30.67
2022-12-03T04:04:02.006Z,30.63
2022-12-03T04:04:35.576Z,28.42
2022-12-03T04:05:08.033Z,29.70
2022-12-03T04:05:39.939Z,29.08
2022-12-03T04:06:11.472Z,28.13
2022-12-03T04:06:42.951Z,30.80
2022-12-03T04:07:15.706Z,30.80
2022-12-03T04:07:47.439Z,28.20
2022-12-03T04:08:19.479Z,29.00
2022-12-03T04:08:51.068Z,28.25
2022-12-03T04:09:22.513Z,30.77
2022-12-03T04:09:54.006Z,31.77
2022-12-03T04:10:43.789Z,29.25
2022-12-03T04:11:33.978Z,31.27
2022-12-03T04:12:24.065Z,28.48
2022-12-03T04:12:55.570Z,30.90
2022-12-03T04:13:27.104Z,30.70
2022-12-03T04:13:58.541Z,35.47
2022-12-03T04:14:30.002Z,29.75
2022-12-03T04:15:01.697Z,28.90
2022-12-03T04:15:33.203Z,28.90
2022-12-03T04:16:04.936Z,32.00
2022-12-03T04:16:36.477Z,28.98
2022-12-03T04:17:08.085Z,30.27
2022-12-03T04:17:39.550Z,29.52
2022-12-03T04:18:29.777Z,31.92
2022-12-03T04:19:01.241Z,33.67
2022-12-03T04:19:32.689Z,30.95
2022-12-03T04:20:04.948Z,32.50
2022-12-03T04:20:37.526Z,29.23
2022-12-03T04:21:35.736Z,30.77
2022-12-03T04:22:25.734Z,25.92
2022-12-03T04:22:57.219Z,28.70
2022-12-03T04:23:31.039Z,29.20
2022-12-03T04:24:03.462Z,30.33
2022-12-03T04:24:34.958Z,30.35
2022-12-03T04:25:27.105Z,32.95
2022-12-03T04:26:17.178Z,33.50
2022-12-03T04:27:07.140Z,32.85
2022-12-03T04:27:57.174Z,28.52
2022-12-03T04:28:47.926Z,29.42
2022-12-03T04:29:20.132Z,31.60
2022-12-03T04:29:51.614Z,29.52
2022-12-03T04:30:23.204Z,33.88
2022-12-03T04:30:54.778Z,29.70
2022-12-03T04:31:52.281Z,33.95
2022-12-03T04:32:42.045Z,30.92
2022-12-03T04:33:32.030Z,29.70
2022-12-03T04:34:21.957Z,30.45
2022-12-03T04:35:12.001Z,31.23
2022-12-03T04:35:43.584Z,34.17
2022-12-03T04:36:15.054Z,31.58
2022-12-03T04:36:47.133Z,34.65
2022-12-03T04:37:18.778Z,33.28
2022-12-03T04:37:50.292Z,36.72
2022-12-03T04:38:21.763Z,32.10
2022-12-03T04:39:11.829Z,31.50
2022-12-03T04:39:43.311Z,33.85
2022-12-03T04:40:33.462Z,33.30
2022-12-03T04:41:05.062Z,35.38
2022-12-03T04:41:36.609Z,35.17
2022-12-03T04:42:08.295Z,38.42
2022-12-03T04:42:39.827Z,30.88
2022-12-03T04:43:11.280Z,43.10
2022-12-03T04:44:01.326Z,35.90
2022-12-03T04:44:33.448Z,32.78
2022-12-03T04:45:05.254Z,35.28
2022-12-03T04:45:36.783Z,36.78
2022-12-03T04:46:08.358Z,35.05
2022-12-03T04:46:39.877Z,38.47
2022-12-03T04:47:16.560Z,39.47
2022-12-03T04:47:48.034Z,36.78
2022-12-03T04:48:19.504Z,34.75
2022-12-03T04:48:51.002Z,39.65
2022-12-03T04:49:22.716Z,39.97
2022-12-03T04:49:54.410Z,33.30
2022-12-03T04:50:25.887Z,36.88
2022-12-03T04:50:57.422Z,40.05
2022-12-03T04:51:28.938Z,36.17
2022-12-03T04:52:00.430Z,35.88
2022-12-03T04:52:31.870Z,35.95
2022-12-03T04:53:03.740Z,36.08
2022-12-03T04:53:36.300Z,42.50
2022-12-03T04:54:07.966Z,36.25
2022-12-03T04:54:40.354Z,34.13
2022-12-03T04:55:11.881Z,39.05
2022-12-03T04:55:43.413Z,38.53
2022-12-03T04:56:14.837Z,38.35
2022-12-03T04:56:46.585Z,40.78
2022-12-03T04:57:18.031Z,44.13
2022-12-03T04:57:49.479Z,36.25
2022-12-03T04:58:20.929Z,35.97
2022-12-03T04:58:52.523Z,35.50
2022-12-03T04:59:24.158Z,36.63
2022-12-03T04:59:55.601Z,44.08
2022-12-03T05:00:28.340Z,47.65
2022-12-03T05:00:59.905Z,40.38
2022-12-03T05:01:31.455Z,41.55
2022-12-03T05:02:04.243Z,43.53
2022-12-03T05:02:37.396Z,39.28
2022-12-03T05:03:09.114Z,44.47
2022-12-03T05:03:40.597Z,38.53
2022-12-03T05:04:13.247Z,39.67
2022-12-03T05:04:44.763Z,47.28
2022-12-03T05:05:16.337Z,43.78
2022-12-03T05:05:47.860Z,41.50
2022-12-03T05:06:19.345Z,39.22
2022-12-03T05:06:50.908Z,42.00
2022-12-03T05:07:22.357Z,39.88
2022-12-03T05:07:53.917Z,37.58
2022-12-03T05:08:25.540Z,46.53
2022-12-03T05:08:57.051Z,46.22
2022-12-03T05:09:29.050Z,43.67
2022-12-03T05:10:00.526Z,42.90
2022-12-03T05:10:32.028Z,41.70
2022-12-03T05:11:03.498Z,40.67
2022-12-03T05:11:35.117Z,41.90
2022-12-03T05:12:06.706Z,40.97
2022-12-03T05:12:38.233Z,40.75
2022-12-03T05:13:09.741Z,43.88
2022-12-03T05:13:43.019Z,40.00
2022-12-03T05:14:14.864Z,47.88
2022-12-03T05:14:46.340Z,46.60
2022-12-03T05:15:17.979Z,44.17
2022-12-03T05:15:49.901Z,46.60
2022-12-03T05:16:21.519Z,45.95
2022-12-03T05:16:53.080Z,42.70
2022-12-03T05:17:24.619Z,43.08
2022-12-03T05:17:56.095Z,42.55
2022-12-03T05:18:27.545Z,45.22
2022-12-03T05:19:00.131Z,42.10
2022-12-03T05:19:50.184Z,44.65
2022-12-03T05:20:39.996Z,40.25
2022-12-03T05:21:11.515Z,42.22
2022-12-03T05:21:42.987Z,38.72
2022-12-03T05:22:14.438Z,40.65
2022-12-03T05:22:46.828Z,43.55
2022-12-03T05:23:18.410Z,42.75
2022-12-03T05:23:50.979Z,40.47
2022-12-03T05:24:22.418Z,39.90
2022-12-03T05:24:54.201Z,46.67
2022-12-03T05:25:25.794Z,41.20
2022-12-03T05:25:57.337Z,42.15
2022-12-03T05:26:28.865Z,36.15
2022-12-03T05:27:00.340Z,38.72
2022-12-03T05:27:31.775Z,46.42
2022-12-03T05:28:04.052Z,40.03
2022-12-03T05:28:35.617Z,47.17
2022-12-03T05:29:07.099Z,36.72
2022-12-03T05:29:38.633Z,45.83
2022-12-03T05:30:10.610Z,39.00
2022-12-03T05:30:42.208Z,38.70
2022-12-03T05:31:13.819Z,41.08
2022-12-03T05:31:45.388Z,40.78
2022-12-03T05:32:16.868Z,40.05
2022-12-03T05:32:48.391Z,40.38
2022-12-03T05:33:20.572Z,37.67
2022-12-03T05:33:52.185Z,34.03
2022-12-03T05:34:23.717Z,45.08
2022-12-03T05:34:55.571Z,39.28
2022-12-03T05:35:27.609Z,40.10
2022-12-03T05:35:59.126Z,41.92
2022-12-03T05:36:30.632Z,41.00
2022-12-03T05:37:02.233Z,48.72
2022-12-03T05:37:33.682Z,46.85
2022-12-03T05:38:05.187Z,42.55
2022-12-03T05:38:36.654Z,43.72
2022-12-03T05:39:08.094Z,41.42
2022-12-03T05:39:39.553Z,38.86
2022-12-03T05:40:12.179Z,42.50
2022-12-03T05:40:43.650Z,45.67
2022-12-03T05:41:34.062Z,37.40
2022-12-03T05:42:24.154Z,41.88
2022-12-03T05:42:56.994Z,42.20
2022-12-03T05:43:28.534Z,39.17
2022-12-03T05:44:00.009Z,43.58
2022-12-03T05:44:31.772Z,40.88
2022-12-03T05:45:03.767Z,45.38
2022-12-03T05:45:42.581Z,43.40
2022-12-03T05:46:14.109Z,41.40
2022-12-03T05:46:45.671Z,39.58
2022-12-03T05:47:17.212Z,40.83
2022-12-03T05:47:48.756Z,39.42
2022-12-03T05:48:20.280Z,41.53
2022-12-03T05:48:51.724Z,44.22
2022-12-03T05:49:23.174Z,40.72
2022-12-03T05:49:54.616Z,46.60
2022-12-03T05:50:28.923Z,42.30
2022-12-03T05:51:00.380Z,42.33
2022-12-03T05:51:31.831Z,41.83
2022-12-03T05:52:03.389Z,42.70
2022-12-03T05:52:34.892Z,43.28
2022-12-03T05:53:06.405Z,44.63
2022-12-03T05:53:37.986Z,42.10
2022-12-03T05:54:09.526Z,43.95
2022-12-03T05:54:40.996Z,42.58
2022-12-03T05:55:12.533Z,50.83
2022-12-03T05:55:44.004Z,45.20
2022-12-03T05:56:15.449Z,45.95
2022-12-03T05:56:46.890Z,50.33
2022-12-03T05:57:18.548Z,40.72
2022-12-03T05:57:50.298Z,45.25
2022-12-03T05:58:21.754Z,50.40
2022-12-03T05:58:53.293Z,46.95
2022-12-03T05:59:26.061Z,47.15
2022-12-03T05:59:57.640Z,39.67
2022-12-03T06:00:31.405Z,48.03
2022-12-03T06:01:03.033Z,42.47
2022-12-03T06:01:34.519Z,46.78
2022-12-03T06:02:06.019Z,50.95
2022-12-03T06:02:37.610Z,48.38
2022-12-03T06:03:09.318Z,44.50
2022-12-03T06:03:40.992Z,45.85
2022-12-03T06:04:12.538Z,47.15
2022-12-03T06:04:44.719Z,42.17
2022-12-03T06:05:19.413Z,45.38
2022-12-03T06:05:50.981Z,49.40
2022-12-03T06:06:22.405Z,47.15
2022-12-03T06:06:54.502Z,47.97
2022-12-03T06:07:26.362Z,43.58
2022-12-03T06:07:57.906Z,53.97
2022-12-03T06:08:29.552Z,46.05
2022-12-03T06:09:01.065Z,48.72
2022-12-03T06:09:32.528Z,49.67
2022-12-03T06:10:05.465Z,52.22
2022-12-03T06:10:37.544Z,46.70
2022-12-03T06:11:09.015Z,47.85
2022-12-03T06:11:41.295Z,56.08
2022-12-03T06:12:12.749Z,46.42
2022-12-03T06:12:44.348Z,49.13
2022-12-03T06:13:16.252Z,51.05
2022-12-03T06:13:47.693Z,47.58
2022-12-03T06:14:19.128Z,45.20
2022-12-03T06:14:50.810Z,52.92
2022-12-03T06:15:22.659Z,45.90
2022-12-03T06:15:54.147Z,47.88
2022-12-03T06:16:25.703Z,50.30
2022-12-03T06:16:57.182Z,48.03
2022-12-03T06:17:28.669Z,55.72
2022-12-03T06:18:00.117Z,44.35
2022-12-03T06:18:31.558Z,49.10
2022-12-03T06:19:03.029Z,47.70
2022-12-03T06:19:34.738Z,54.60
2022-12-03T06:20:07.318Z,51.33
2022-12-03T06:20:39.023Z,50.47
2022-12-03T06:21:10.523Z,62.92
2022-12-03T06:21:41.966Z,47.50
2022-12-03T06:22:13.486Z,55.17
2022-12-03T06:22:45.125Z,50.72
2022-12-03T06:23:16.586Z,51.58
2022-12-03T06:23:48.024Z,55.55
2022-12-03T06:24:19.474Z,49.50
2022-12-03T06:24:51.309Z,50.55
2022-12-03T06:25:23.119Z,44.95
2022-12-03T06:25:54.639Z,50.78
2022-12-03T06:26:26.081Z,57.38
2022-12-03T06:26:57.530Z,48.32
2022-12-03T06:27:29.012Z,50.80
2022-12-03T06:28:00.476Z,51.42
2022-12-03T06:28:31.947Z,52.62
2022-12-03T06:29:03.461Z,60.95
2022-12-03T06:29:35.084Z,52.80
2022-12-03T06:30:08.598Z,51.33
2022-12-03T06:30:40.218Z,51.85
2022-12-03T06:31:12.589Z,53.65
2022-12-03T06:31:44.367Z,50.00
2022-12-03T06:32:15.947Z,52.88
2022-12-03T06:32:47.450Z,46.80
2022-12-03T06:33:18.905Z,57.90
2022-12-03T06:33:50.356Z,51.97
2022-12-03T06:34:21.822Z,54.72
2022-12-03T06:34:53.578Z,57.10
2022-12-03T06:35:25.252Z,55.95
2022-12-03T06:35:56.765Z,52.03
2022-12-03T06:36:28.281Z,61.22
2022-12-03T06:36:59.809Z,57.28
2022-12-03T06:37:31.339Z,60.83
2022-12-03T06:38:02.926Z,51.47
2022-12-03T06:38:34.368Z,53.92
2022-12-03T06:39:05.826Z,53.83
2022-12-03T06:39:37.276Z,55.20
2022-12-03T06:40:09.185Z,51.55
2022-12-03T06:40:40.662Z,55.28
2022-12-03T06:41:12.354Z,56.33
2022-12-03T06:41:43.872Z,66.32
2022-12-03T06:42:15.326Z,58.60
2022-12-03T06:42:46.982Z,54.08
2022-12-03T06:43:18.460Z,59.00
2022-12-03T06:43:49.890Z,47.47
2022-12-03T06:44:21.544Z,55.95
2022-12-03T06:44:53.362Z,58.70
2022-12-03T06:45:24.957Z,53.82
2022-12-03T06:45:56.718Z,53.28
2022-12-03T06:46:29.003Z,59.75
2022-12-03T06:47:00.636Z,55.65
2022-12-03T06:47:32.167Z,61.05
2022-12-03T06:48:03.778Z,62.83
2022-12-03T06:48:35.337Z,62.65
2022-12-03T06:49:09.146Z,59.30
2022-12-03T06:49:40.652Z,51.90
2022-12-03T06:50:13.328Z,57.70
2022-12-03T06:50:44.801Z,58.78
2022-12-03T06:51:19.143Z,60.38
2022-12-03T06:51:50.639Z,62.28
2022-12-03T06:52:22.371Z,57.75
2022-12-03T06:52:53.877Z,62.58
2022-12-03T06:53:25.330Z,61.95
2022-12-03T06:53:56.821Z,58.70
2022-12-03T06:54:28.412Z,52.33
2022-12-03T06:55:00.045Z,44.05
2022-12-03T06:55:31.518Z,64.82
2022-12-03T06:56:02.990Z,51.90
2022-12-03T06:56:39.118Z,60.20
2022-12-03T06:57:15.020Z,61.88
2022-12-03T06:57:46.538Z,56.03
2022-12-03T06:58:18.008Z,50.63
2022-12-03T06:58:49.477Z,61.42
2022-12-03T06:59:20.992Z,56.42
2022-12-03T06:59:52.800Z,56.72
2022-12-03T07:00:24.490Z,59.28
2022-12-03T07:00:55.957Z,55.47
2022-12-03T07:01:27.433Z,57.55
2022-12-03T07:01:58.962Z,61.03
2022-12-03T07:02:30.517Z,57.83
2022-12-03T07:03:02.391Z,59.65
2022-12-03T07:03:33.903Z,55.53
2022-12-03T07:04:05.598Z,55.15
2022-12-03T07:04:38.368Z,55.80
2022-12-03T07:05:11.619Z,55.80
2022-12-03T07:05:43.072Z,61.10